sensor_id;sensor_type;location;lat;lon;timestamp;temperature;humidity
44537;DHT22;30245;51.966;6.292;2023-03-01T00:01:03;7.80;36.70
44537;DHT22;30245;51.966;6.292;2023-03-01T00:03:29;7.80;36.80
44537;DHT22;30245;51.966;6.292;2023-03-01T00:05:54;7.80;36.80
44537;DHT22;30245;51.966;6.292;2023-03-01T00:08:20;7.80;36.90
44537;DHT22;30245;51.966;6.292;2023-03-01T00:10:45;7.80;36.90
44537;DHT22;30245;51.966;6.292;2023-03-01T00:13:11;7.90;36.90
44537;DHT22;30245;51.966;6.292;2023-03-01T00:15:40;7.90;36.90
44537;DHT22;30245;51.966;6.292;2023-03-01T00:18:07;7.80;37.00
44537;DHT22;30245;51.966;6.292;2023-03-01T00:20:32;7.90;37.00
44537;DHT22;30245;51.966;6.292;2023-03-01T00:22:58;7.80;37.00
44537;DHT22;30245;51.966;6.292;2023-03-01T00:25:23;7.80;37.00
44537;DHT22;30245;51.966;6.292;2023-03-01T00:27:49;7.80;37.10
44537;DHT22;30245;51.966;6.292;2023-03-01T00:30:15;7.80;37.10
44537;DHT22;30245;51.966;6.292;2023-03-01T00:32:40;7.90;37.10
44537;DHT22;30245;51.966;6.292;2023-03-01T00:35:06;7.90;37.20
44537;DHT22;30245;51.966;6.292;2023-03-01T00:37:32;7.90;37.20
44537;DHT22;30245;51.966;6.292;2023-03-01T00:39:57;7.80;37.20
44537;DHT22;30245;51.966;6.292;2023-03-01T00:42:23;7.90;37.30
44537;DHT22;30245;51.966;6.292;2023-03-01T00:44:49;7.80;37.30
44537;DHT22;30245;51.966;6.292;2023-03-01T00:47:14;7.80;37.40
44537;DHT22;30245;51.966;6.292;2023-03-01T00:49:40;7.80;37.50
44537;DHT22;30245;51.966;6.292;2023-03-01T00:52:06;7.70;37.40
44537;DHT22;30245;51.966;6.292;2023-03-01T00:54:31;7.70;37.50
44537;DHT22;30245;51.966;6.292;2023-03-01T00:56:57;7.70;37.60
44537;DHT22;30245;51.966;6.292;2023-03-01T00:59:22;7.60;37.70
44537;DHT22;30245;51.966;6.292;2023-03-01T01:01:48;7.60;37.80
44537;DHT22;30245;51.966;6.292;2023-03-01T01:04:13;7.60;37.90
44537;DHT22;30245;51.966;6.292;2023-03-01T01:06:44;7.50;37.90
44537;DHT22;30245;51.966;6.292;2023-03-01T01:09:12;7.50;37.90
44537;DHT22;30245;51.966;6.292;2023-03-01T01:11:50;7.50;38.00
44537;DHT22;30245;51.966;6.292;2023-03-01T01:14:16;7.40;38.00
44537;DHT22;30245;51.966;6.292;2023-03-01T01:16:42;7.40;38.00
44537;DHT22;30245;51.966;6.292;2023-03-01T01:19:10;7.40;38.00
44537;DHT22;30245;51.966;6.292;2023-03-01T01:21:35;7.40;38.10
44537;DHT22;30245;51.966;6.292;2023-03-01T01:24:03;7.30;38.10
44537;DHT22;30245;51.966;6.292;2023-03-01T01:26:31;7.30;38.20
44537;DHT22;30245;51.966;6.292;2023-03-01T01:28:58;7.30;38.30
44537;DHT22;30245;51.966;6.292;2023-03-01T01:31:24;7.20;38.30
44537;DHT22;30245;51.966;6.292;2023-03-01T01:33:51;7.20;38.40
44537;DHT22;30245;51.966;6.292;2023-03-01T01:36:17;7.20;39.00
44537;DHT22;30245;51.966;6.292;2023-03-01T01:38:43;7.20;38.40
44537;DHT22;30245;51.966;6.292;2023-03-01T01:41:10;7.10;38.50
44537;DHT22;30245;51.966;6.292;2023-03-01T01:43:45;7.10;38.60
44537;DHT22;30245;51.966;6.292;2023-03-01T01:48:58;7.00;38.70
44537;DHT22;30245;51.966;6.292;2023-03-01T01:51:30;6.90;38.70
44537;DHT22;30245;51.966;6.292;2023-03-01T01:54:06;6.90;38.80
44537;DHT22;30245;51.966;6.292;2023-03-01T01:56:33;6.90;38.80
44537;DHT22;30245;51.966;6.292;2023-03-01T01:58:59;6.90;38.80
44537;DHT22;30245;51.966;6.292;2023-03-01T02:01:24;6.80;38.80
44537;DHT22;30245;51.966;6.292;2023-03-01T02:03:50;6.80;38.90
44537;DHT22;30245;51.966;6.292;2023-03-01T02:06:33;6.80;39.00
44537;DHT22;30245;51.966;6.292;2023-03-01T02:09:05;6.80;39.10
44537;DHT22;30245;51.966;6.292;2023-03-01T02:11:32;6.70;39.00
44537;DHT22;30245;51.966;6.292;2023-03-01T02:13:59;6.70;39.10
44537;DHT22;30245;51.966;6.292;2023-03-01T02:16:26;6.70;39.10
44537;DHT22;30245;51.966;6.292;2023-03-01T02:18:52;6.70;39.10
44537;DHT22;30245;51.966;6.292;2023-03-01T02:24:39;6.70;39.20
44537;DHT22;30245;51.966;6.292;2023-03-01T02:27:06;6.50;39.30
44537;DHT22;30245;51.966;6.292;2023-03-01T02:29:32;6.60;39.20
44537;DHT22;30245;51.966;6.292;2023-03-01T02:32:00;6.60;39.20
44537;DHT22;30245;51.966;6.292;2023-03-01T02:34:27;6.60;39.30
44537;DHT22;30245;51.966;6.292;2023-03-01T02:37:01;6.60;39.40
44537;DHT22;30245;51.966;6.292;2023-03-01T02:39:37;6.50;39.50
44537;DHT22;30245;51.966;6.292;2023-03-01T02:42:09;6.50;39.50
44537;DHT22;30245;51.966;6.292;2023-03-01T02:44:36;6.50;39.50
44537;DHT22;30245;51.966;6.292;2023-03-01T02:47:03;6.50;39.50
44537;DHT22;30245;51.966;6.292;2023-03-01T02:49:31;6.40;39.50
44537;DHT22;30245;51.966;6.292;2023-03-01T02:57:27;6.40;39.70
44537;DHT22;30245;51.966;6.292;2023-03-01T02:59:54;6.40;39.70
44537;DHT22;30245;51.966;6.292;2023-03-01T03:02:26;6.40;39.70
44537;DHT22;30245;51.966;6.292;2023-03-01T03:05:12;6.40;39.70
44537;DHT22;30245;51.966;6.292;2023-03-01T03:07:41;6.40;39.80
44537;DHT22;30245;51.966;6.292;2023-03-01T03:10:11;6.40;39.80
44537;DHT22;30245;51.966;6.292;2023-03-01T03:12:38;6.40;39.70
44537;DHT22;30245;51.966;6.292;2023-03-01T03:15:05;6.40;39.80
44537;DHT22;30245;51.966;6.292;2023-03-01T03:17:35;6.40;39.90
44537;DHT22;30245;51.966;6.292;2023-03-01T03:20:02;6.40;39.90
44537;DHT22;30245;51.966;6.292;2023-03-01T03:22:29;6.30;39.90
44537;DHT22;30245;51.966;6.292;2023-03-01T03:24:54;6.30;40.00
44537;DHT22;30245;51.966;6.292;2023-03-01T03:27:20;6.30;40.00
44537;DHT22;30245;51.966;6.292;2023-03-01T03:29:45;6.30;40.00
44537;DHT22;30245;51.966;6.292;2023-03-01T03:32:11;6.30;40.10
44537;DHT22;30245;51.966;6.292;2023-03-01T03:34:37;6.30;40.00
44537;DHT22;30245;51.966;6.292;2023-03-01T03:37:02;6.30;40.00
44537;DHT22;30245;51.966;6.292;2023-03-01T03:39:28;6.30;40.00
44537;DHT22;30245;51.966;6.292;2023-03-01T03:41:54;6.30;40.10
44537;DHT22;30245;51.966;6.292;2023-03-01T03:44:20;6.30;40.10
44537;DHT22;30245;51.966;6.292;2023-03-01T03:46:46;6.20;40.70
44537;DHT22;30245;51.966;6.292;2023-03-01T03:49:12;6.20;40.10
44537;DHT22;30245;51.966;6.292;2023-03-01T03:51:37;6.20;40.20
44537;DHT22;30245;51.966;6.292;2023-03-01T03:54:03;6.20;40.20
44537;DHT22;30245;51.966;6.292;2023-03-01T03:56:28;6.20;40.30
44537;DHT22;30245;51.966;6.292;2023-03-01T03:58:54;6.10;40.30
44537;DHT22;30245;51.966;6.292;2023-03-01T04:01:20;6.20;40.40
44537;DHT22;30245;51.966;6.292;2023-03-01T04:03:45;6.20;40.40
44537;DHT22;30245;51.966;6.292;2023-03-01T04:06:14;6.20;40.40
44537;DHT22;30245;51.966;6.292;2023-03-01T04:08:40;6.20;40.30
44537;DHT22;30245;51.966;6.292;2023-03-01T04:11:06;6.20;40.40
44537;DHT22;30245;51.966;6.292;2023-03-01T04:13:51;6.20;40.40
44537;DHT22;30245;51.966;6.292;2023-03-01T04:16:18;6.10;40.40
44537;DHT22;30245;51.966;6.292;2023-03-01T04:18:44;6.10;40.50
44537;DHT22;30245;51.966;6.292;2023-03-01T04:21:09;6.10;41.10
44537;DHT22;30245;51.966;6.292;2023-03-01T04:23:37;6.10;40.50
44537;DHT22;30245;51.966;6.292;2023-03-01T04:26:03;6.10;40.50
44537;DHT22;30245;51.966;6.292;2023-03-01T04:28:34;6.10;40.50
44537;DHT22;30245;51.966;6.292;2023-03-01T04:31:04;6.10;40.60
44537;DHT22;30245;51.966;6.292;2023-03-01T04:33:43;6.10;40.70
44537;DHT22;30245;51.966;6.292;2023-03-01T04:36:10;6.00;40.60
44537;DHT22;30245;51.966;6.292;2023-03-01T04:38:37;6.00;40.70
44537;DHT22;30245;51.966;6.292;2023-03-01T04:41:09;6.00;40.70
44537;DHT22;30245;51.966;6.292;2023-03-01T04:43:35;6.00;40.80
44537;DHT22;30245;51.966;6.292;2023-03-01T04:46:09;5.90;40.80
44537;DHT22;30245;51.966;6.292;2023-03-01T04:48:37;5.90;40.90
44537;DHT22;30245;51.966;6.292;2023-03-01T04:51:04;5.90;40.90
44537;DHT22;30245;51.966;6.292;2023-03-01T04:53:31;5.90;41.00
44537;DHT22;30245;51.966;6.292;2023-03-01T04:55:58;5.90;41.00
44537;DHT22;30245;51.966;6.292;2023-03-01T04:58:25;5.90;41.00
44537;DHT22;30245;51.966;6.292;2023-03-01T05:00:52;5.90;41.00
44537;DHT22;30245;51.966;6.292;2023-03-01T05:03:18;5.90;41.00
44537;DHT22;30245;51.966;6.292;2023-03-01T05:05:45;5.90;40.90
44537;DHT22;30245;51.966;6.292;2023-03-01T05:08:11;6.00;41.00
44537;DHT22;30245;51.966;6.292;2023-03-01T05:10:48;6.00;40.90
44537;DHT22;30245;51.966;6.292;2023-03-01T05:13:14;6.00;40.90
44537;DHT22;30245;51.966;6.292;2023-03-01T05:15:47;6.00;40.90
44537;DHT22;30245;51.966;6.292;2023-03-01T05:18:13;5.90;40.80
44537;DHT22;30245;51.966;6.292;2023-03-01T05:20:38;5.90;40.90
44537;DHT22;30245;51.966;6.292;2023-03-01T05:23:04;5.90;41.00
44537;DHT22;30245;51.966;6.292;2023-03-01T05:25:32;5.90;41.00
44537;DHT22;30245;51.966;6.292;2023-03-01T05:28:02;5.90;41.10
44537;DHT22;30245;51.966;6.292;2023-03-01T05:30:31;5.80;41.10
44537;DHT22;30245;51.966;6.292;2023-03-01T05:32:58;5.80;41.20
44537;DHT22;30245;51.966;6.292;2023-03-01T05:35:24;5.80;41.30
44537;DHT22;30245;51.966;6.292;2023-03-01T05:37:49;5.80;41.30
44537;DHT22;30245;51.966;6.292;2023-03-01T05:40:18;5.80;41.30
44537;DHT22;30245;51.966;6.292;2023-03-01T05:42:46;5.70;41.40
44537;DHT22;30245;51.966;6.292;2023-03-01T05:45:12;5.70;41.40
44537;DHT22;30245;51.966;6.292;2023-03-01T05:47:40;5.70;41.50
44537;DHT22;30245;51.966;6.292;2023-03-01T05:50:28;5.60;41.50
44537;DHT22;30245;51.966;6.292;2023-03-01T05:53:06;5.60;41.50
44537;DHT22;30245;51.966;6.292;2023-03-01T05:55:33;5.60;41.60
44537;DHT22;30245;51.966;6.292;2023-03-01T05:58:01;5.60;41.50
44537;DHT22;30245;51.966;6.292;2023-03-01T06:00:28;5.60;41.50
44537;DHT22;30245;51.966;6.292;2023-03-01T06:02:55;5.50;41.60
44537;DHT22;30245;51.966;6.292;2023-03-01T06:05:21;5.50;41.60
44537;DHT22;30245;51.966;6.292;2023-03-01T06:07:48;5.50;41.70
44537;DHT22;30245;51.966;6.292;2023-03-01T06:10:14;5.60;41.80
44537;DHT22;30245;51.966;6.292;2023-03-01T06:12:41;5.60;41.70
44537;DHT22;30245;51.966;6.292;2023-03-01T06:15:08;5.60;41.80
44537;DHT22;30245;51.966;6.292;2023-03-01T06:17:38;5.60;41.70
44537;DHT22;30245;51.966;6.292;2023-03-01T06:20:11;5.70;41.80
44537;DHT22;30245;51.966;6.292;2023-03-01T06:22:38;5.70;41.80
44537;DHT22;30245;51.966;6.292;2023-03-01T06:25:04;5.60;41.70
44537;DHT22;30245;51.966;6.292;2023-03-01T06:27:30;5.60;41.70
44537;DHT22;30245;51.966;6.292;2023-03-01T06:29:56;5.70;41.90
44537;DHT22;30245;51.966;6.292;2023-03-01T06:32:21;5.70;41.90
44537;DHT22;30245;51.966;6.292;2023-03-01T06:34:47;5.60;41.90
44537;DHT22;30245;51.966;6.292;2023-03-01T06:37:12;5.60;42.00
44537;DHT22;30245;51.966;6.292;2023-03-01T06:39:38;5.70;42.10
44537;DHT22;30245;51.966;6.292;2023-03-01T06:42:04;5.70;42.00
44537;DHT22;30245;51.966;6.292;2023-03-01T06:44:30;5.70;42.00
44537;DHT22;30245;51.966;6.292;2023-03-01T06:46:55;5.70;42.00
44537;DHT22;30245;51.966;6.292;2023-03-01T06:49:21;5.70;42.00
44537;DHT22;30245;51.966;6.292;2023-03-01T06:51:46;5.70;42.00
44537;DHT22;30245;51.966;6.292;2023-03-01T06:54:12;5.70;42.00
44537;DHT22;30245;51.966;6.292;2023-03-01T06:56:39;5.80;42.10
44537;DHT22;30245;51.966;6.292;2023-03-01T06:59:04;5.80;42.10
44537;DHT22;30245;51.966;6.292;2023-03-01T07:01:30;5.80;42.10
44537;DHT22;30245;51.966;6.292;2023-03-01T07:03:56;5.80;42.10
44537;DHT22;30245;51.966;6.292;2023-03-01T07:06:22;5.90;42.30
44537;DHT22;30245;51.966;6.292;2023-03-01T07:08:48;5.90;42.20
44537;DHT22;30245;51.966;6.292;2023-03-01T07:11:14;6.00;42.30
44537;DHT22;30245;51.966;6.292;2023-03-01T07:13:40;6.00;42.20
44537;DHT22;30245;51.966;6.292;2023-03-01T07:16:05;6.00;42.20
44537;DHT22;30245;51.966;6.292;2023-03-01T07:18:31;6.00;42.30
44537;DHT22;30245;51.966;6.292;2023-03-01T07:20:57;6.00;42.30
44537;DHT22;30245;51.966;6.292;2023-03-01T07:23:22;6.10;42.30
44537;DHT22;30245;51.966;6.292;2023-03-01T07:25:52;6.10;42.20
44537;DHT22;30245;51.966;6.292;2023-03-01T07:28:18;6.30;42.30
44537;DHT22;30245;51.966;6.292;2023-03-01T07:30:44;6.40;42.10
44537;DHT22;30245;51.966;6.292;2023-03-01T07:33:10;6.40;42.00
44537;DHT22;30245;51.966;6.292;2023-03-01T07:35:35;6.50;42.10
44537;DHT22;30245;51.966;6.292;2023-03-01T07:38:01;6.50;42.10
44537;DHT22;30245;51.966;6.292;2023-03-01T07:40:26;6.50;42.10
44537;DHT22;30245;51.966;6.292;2023-03-01T07:42:58;6.60;42.20
44537;DHT22;30245;51.966;6.292;2023-03-01T07:45:25;6.60;42.30
44537;DHT22;30245;51.966;6.292;2023-03-01T07:47:52;6.70;42.30
44537;DHT22;30245;51.966;6.292;2023-03-01T07:50:18;6.70;42.30
44537;DHT22;30245;51.966;6.292;2023-03-01T07:52:48;6.80;42.20
44537;DHT22;30245;51.966;6.292;2023-03-01T07:55:14;6.90;42.30
44537;DHT22;30245;51.966;6.292;2023-03-01T07:57:40;7.00;42.30
44537;DHT22;30245;51.966;6.292;2023-03-01T08:00:07;7.10;42.20
44537;DHT22;30245;51.966;6.292;2023-03-01T08:02:33;7.20;42.20
44537;DHT22;30245;51.966;6.292;2023-03-01T08:04:58;7.20;42.20
44537;DHT22;30245;51.966;6.292;2023-03-01T08:07:24;7.30;42.20
44537;DHT22;30245;51.966;6.292;2023-03-01T08:09:49;7.30;42.20
44537;DHT22;30245;51.966;6.292;2023-03-01T08:12:15;7.40;42.20
44537;DHT22;30245;51.966;6.292;2023-03-01T08:14:42;7.50;42.20
44537;DHT22;30245;51.966;6.292;2023-03-01T08:17:08;7.70;42.20
44537;DHT22;30245;51.966;6.292;2023-03-01T08:19:33;7.80;42.10
44537;DHT22;30245;51.966;6.292;2023-03-01T08:22:03;7.90;42.10
44537;DHT22;30245;51.966;6.292;2023-03-01T08:24:28;8.00;42.20
44537;DHT22;30245;51.966;6.292;2023-03-01T08:26:54;8.40;42.30
44537;DHT22;30245;51.966;6.292;2023-03-01T08:29:21;9.10;41.80
44537;DHT22;30245;51.966;6.292;2023-03-01T08:31:47;9.90;41.20
44537;DHT22;30245;51.966;6.292;2023-03-01T08:34:15;10.70;40.30
44537;DHT22;30245;51.966;6.292;2023-03-01T08:36:43;11.40;39.30
44537;DHT22;30245;51.966;6.292;2023-03-01T08:39:11;11.90;38.40
44537;DHT22;30245;51.966;6.292;2023-03-01T08:41:37;12.00;38.00
44537;DHT22;30245;51.966;6.292;2023-03-01T08:44:04;12.10;37.80
44537;DHT22;30245;51.966;6.292;2023-03-01T08:46:33;12.50;37.90
44537;DHT22;30245;51.966;6.292;2023-03-01T08:48:59;13.00;37.50
44537;DHT22;30245;51.966;6.292;2023-03-01T08:51:25;13.60;37.00
44537;DHT22;30245;51.966;6.292;2023-03-01T08:53:51;14.10;37.10
44537;DHT22;30245;51.966;6.292;2023-03-01T08:56:18;14.60;35.80
44537;DHT22;30245;51.966;6.292;2023-03-01T08:58:47;15.20;34.90
44537;DHT22;30245;51.966;6.292;2023-03-01T09:01:18;15.50;34.50
44537;DHT22;30245;51.966;6.292;2023-03-01T09:03:45;15.80;33.90
44537;DHT22;30245;51.966;6.292;2023-03-01T09:06:11;16.10;33.70
44537;DHT22;30245;51.966;6.292;2023-03-01T09:08:39;16.40;33.20
44537;DHT22;30245;51.966;6.292;2023-03-01T09:11:06;16.50;32.90
44537;DHT22;30245;51.966;6.292;2023-03-01T09:13:33;16.60;32.40
44537;DHT22;30245;51.966;6.292;2023-03-01T09:16:01;16.70;32.50
44537;DHT22;30245;51.966;6.292;2023-03-01T09:18:27;16.80;32.30
44537;DHT22;30245;51.966;6.292;2023-03-01T09:21:00;17.00;31.70
44537;DHT22;30245;51.966;6.292;2023-03-01T09:23:25;17.20;31.70
44537;DHT22;30245;51.966;6.292;2023-03-01T09:25:52;17.30;31.40
44537;DHT22;30245;51.966;6.292;2023-03-01T09:28:17;17.30;30.90
44537;DHT22;30245;51.966;6.292;2023-03-01T09:30:43;17.20;30.80
44537;DHT22;30245;51.966;6.292;2023-03-01T09:33:08;17.30;30.70
44537;DHT22;30245;51.966;6.292;2023-03-01T09:35:40;17.50;30.30
44537;DHT22;30245;51.966;6.292;2023-03-01T09:38:11;17.70;30.30
44537;DHT22;30245;51.966;6.292;2023-03-01T09:40:42;17.90;29.70
44537;DHT22;30245;51.966;6.292;2023-03-01T09:45:46;18.00;28.90
44537;DHT22;30245;51.966;6.292;2023-03-01T09:48:21;18.00;28.90
44537;DHT22;30245;51.966;6.292;2023-03-01T09:50:49;18.00;28.80
44537;DHT22;30245;51.966;6.292;2023-03-01T09:53:24;18.20;28.80
44537;DHT22;30245;51.966;6.292;2023-03-01T10:09:38;19.60;27.50
44537;DHT22;30245;51.966;6.292;2023-03-01T10:12:09;19.70;27.50
44537;DHT22;30245;51.966;6.292;2023-03-01T10:22:42;19.60;26.70
44537;DHT22;30245;51.966;6.292;2023-03-01T10:25:13;19.40;26.40
44537;DHT22;30245;51.966;6.292;2023-03-01T10:27:51;19.10;26.40
44537;DHT22;30245;51.966;6.292;2023-03-01T10:30:38;19.10;26.90
44537;DHT22;30245;51.966;6.292;2023-03-01T10:35:54;19.20;26.60
44537;DHT22;30245;51.966;6.292;2023-03-01T10:38:20;18.90;26.40
44537;DHT22;30245;51.966;6.292;2023-03-01T10:41:16;18.70;26.50
44537;DHT22;30245;51.966;6.292;2023-03-01T10:43:48;18.40;26.60
44537;DHT22;30245;51.966;6.292;2023-03-01T10:51:43;18.00;26.40
44537;DHT22;30245;51.966;6.292;2023-03-01T10:54:30;17.90;26.50
44537;DHT22;30245;51.966;6.292;2023-03-01T10:57:02;17.80;26.70
44537;DHT22;30245;51.966;6.292;2023-03-01T10:59:33;18.00;26.70
44537;DHT22;30245;51.966;6.292;2023-03-01T11:04:27;17.90;26.60
44537;DHT22;30245;51.966;6.292;2023-03-01T11:07:00;18.10;26.90
44537;DHT22;30245;51.966;6.292;2023-03-01T11:09:31;18.50;26.90
44537;DHT22;30245;51.966;6.292;2023-03-01T11:12:04;18.80;26.70
44537;DHT22;30245;51.966;6.292;2023-03-01T11:14:37;18.90;26.60
44537;DHT22;30245;51.966;6.292;2023-03-01T11:17:04;18.90;26.40
44537;DHT22;30245;51.966;6.292;2023-03-01T11:19:31;19.00;26.40
44537;DHT22;30245;51.966;6.292;2023-03-01T11:22:04;19.00;26.40
44537;DHT22;30245;51.966;6.292;2023-03-01T11:24:44;19.20;26.50
44537;DHT22;30245;51.966;6.292;2023-03-01T11:27:24;19.20;26.20
44537;DHT22;30245;51.966;6.292;2023-03-01T11:29:58;19.10;26.10
44537;DHT22;30245;51.966;6.292;2023-03-01T11:32:26;19.00;26.10
44537;DHT22;30245;51.966;6.292;2023-03-01T11:34:57;18.90;26.20
44537;DHT22;30245;51.966;6.292;2023-03-01T11:37:36;19.00;26.60
44537;DHT22;30245;51.966;6.292;2023-03-01T11:40:05;19.30;26.50
44537;DHT22;30245;51.966;6.292;2023-03-01T11:45:12;19.20;25.90
44537;DHT22;30245;51.966;6.292;2023-03-01T11:50:52;18.70;26.00
44537;DHT22;30245;51.966;6.292;2023-03-01T11:53:49;18.70;26.20
44537;DHT22;30245;51.966;6.292;2023-03-01T12:02:12;19.20;26.30
44537;DHT22;30245;51.966;6.292;2023-03-01T12:10:28;18.70;26.00
44537;DHT22;30245;51.966;6.292;2023-03-01T12:16:13;18.70;26.50
44537;DHT22;30245;51.966;6.292;2023-03-01T12:44:45;19.10;25.80
44537;DHT22;30245;51.966;6.292;2023-03-01T12:50:15;19.00;25.90
44537;DHT22;30245;51.966;6.292;2023-03-01T12:52:55;18.80;25.80
44537;DHT22;30245;51.966;6.292;2023-03-01T12:55:34;18.60;25.80
44537;DHT22;30245;51.966;6.292;2023-03-01T12:58:27;18.30;25.90
44537;DHT22;30245;51.966;6.292;2023-03-01T13:08:51;18.10;26.30
44537;DHT22;30245;51.966;6.292;2023-03-01T13:11:22;18.20;26.40
44537;DHT22;30245;51.966;6.292;2023-03-01T13:13:49;18.30;26.10
44537;DHT22;30245;51.966;6.292;2023-03-01T13:19:15;18.50;26.20
44537;DHT22;30245;51.966;6.292;2023-03-01T13:21:41;18.70;26.20
44537;DHT22;30245;51.966;6.292;2023-03-01T13:24:25;19.00;26.40
44537;DHT22;30245;51.966;6.292;2023-03-01T13:29:58;19.00;26.10
44537;DHT22;30245;51.966;6.292;2023-03-01T13:32:32;19.00;26.10
44537;DHT22;30245;51.966;6.292;2023-03-01T13:35:03;18.80;25.90
44537;DHT22;30245;51.966;6.292;2023-03-01T13:37:35;18.60;25.90
44537;DHT22;30245;51.966;6.292;2023-03-01T13:40:07;18.60;26.20
44537;DHT22;30245;51.966;6.292;2023-03-01T13:42:52;18.70;26.50
44537;DHT22;30245;51.966;6.292;2023-03-01T13:47:58;18.90;26.10
44537;DHT22;30245;51.966;6.292;2023-03-01T13:50:28;18.70;25.70
44537;DHT22;30245;51.966;6.292;2023-03-01T13:53:03;18.40;25.80
44537;DHT22;30245;51.966;6.292;2023-03-01T13:55:37;18.40;26.10
44537;DHT22;30245;51.966;6.292;2023-03-01T13:58:14;18.50;26.20
44537;DHT22;30245;51.966;6.292;2023-03-01T14:00:40;18.60;25.90
44537;DHT22;30245;51.966;6.292;2023-03-01T14:03:33;18.60;25.70
44537;DHT22;30245;51.966;6.292;2023-03-01T14:06:13;18.40;25.60
44537;DHT22;30245;51.966;6.292;2023-03-01T14:08:41;18.20;25.40
44537;DHT22;30245;51.966;6.292;2023-03-01T14:11:37;18.10;25.50
44537;DHT22;30245;51.966;6.292;2023-03-01T14:17:35;17.70;25.50
44537;DHT22;30245;51.966;6.292;2023-03-01T14:20:16;17.80;25.70
44537;DHT22;30245;51.966;6.292;2023-03-01T14:22:43;18.10;25.90
44537;DHT22;30245;51.966;6.292;2023-03-01T14:25:36;18.40;25.80
44537;DHT22;30245;51.966;6.292;2023-03-01T14:28:31;18.70;25.70
44537;DHT22;30245;51.966;6.292;2023-03-01T14:31:03;18.90;25.40
44537;DHT22;30245;51.966;6.292;2023-03-01T14:33:30;18.70;25.10
44537;DHT22;30245;51.966;6.292;2023-03-01T14:36:12;18.50;25.20
44537;DHT22;30245;51.966;6.292;2023-03-01T14:38:45;18.40;25.50
44537;DHT22;30245;51.966;6.292;2023-03-01T14:41:23;18.60;26.00
44537;DHT22;30245;51.966;6.292;2023-03-01T14:43:56;18.60;25.30
44537;DHT22;30245;51.966;6.292;2023-03-01T14:46:26;18.50;25.30
44537;DHT22;30245;51.966;6.292;2023-03-01T14:51:34;18.50;25.40
44537;DHT22;30245;51.966;6.292;2023-03-01T14:54:00;19.00;25.40
44537;DHT22;30245;51.966;6.292;2023-03-01T14:56:25;19.70;25.20
44537;DHT22;30245;51.966;6.292;2023-03-01T14:58:53;20.30;24.90
44537;DHT22;30245;51.966;6.292;2023-03-01T15:01:23;20.90;24.60
44537;DHT22;30245;51.966;6.292;2023-03-01T15:03:49;20.90;24.10
44537;DHT22;30245;51.966;6.292;2023-03-01T15:06:18;20.90;24.10
44537;DHT22;30245;51.966;6.292;2023-03-01T15:08:47;21.10;23.90
44537;DHT22;30245;51.966;6.292;2023-03-01T15:11:27;21.20;24.10
44537;DHT22;30245;51.966;6.292;2023-03-01T15:13:53;21.30;23.60
44537;DHT22;30245;51.966;6.292;2023-03-01T15:16:29;21.30;23.50
44537;DHT22;30245;51.966;6.292;2023-03-01T15:24:39;20.90;23.50
44537;DHT22;30245;51.966;6.292;2023-03-01T15:27:01;21.20;23.90
44537;DHT22;30245;51.966;6.292;2023-03-01T15:29:33;21.60;23.50
44537;DHT22;30245;51.966;6.292;2023-03-01T15:32:26;21.70;23.20
44537;DHT22;30245;51.966;6.292;2023-03-01T15:34:53;21.60;23.20
44537;DHT22;30245;51.966;6.292;2023-03-01T15:37:44;21.80;23.10
44537;DHT22;30245;51.966;6.292;2023-03-01T15:40:27;21.70;22.90
44537;DHT22;30245;51.966;6.292;2023-03-01T15:43:07;21.50;22.90
44537;DHT22;30245;51.966;6.292;2023-03-01T15:45:58;21.30;23.00
44537;DHT22;30245;51.966;6.292;2023-03-01T15:48:23;21.20;23.10
44537;DHT22;30245;51.966;6.292;2023-03-01T15:50:56;20.80;23.00
44537;DHT22;30245;51.966;6.292;2023-03-01T15:53:23;20.20;23.10
44537;DHT22;30245;51.966;6.292;2023-03-01T15:55:48;19.90;23.40
44537;DHT22;30245;51.966;6.292;2023-03-01T15:58:18;19.60;23.50
44537;DHT22;30245;51.966;6.292;2023-03-01T16:00:45;19.20;23.50
44537;DHT22;30245;51.966;6.292;2023-03-01T16:03:14;18.90;23.80
44537;DHT22;30245;51.966;6.292;2023-03-01T16:05:48;18.70;24.10
44537;DHT22;30245;51.966;6.292;2023-03-01T16:08:14;18.50;24.20
44537;DHT22;30245;51.966;6.292;2023-03-01T16:10:40;18.40;24.30
44537;DHT22;30245;51.966;6.292;2023-03-01T16:13:06;18.50;24.50
44537;DHT22;30245;51.966;6.292;2023-03-01T16:15:33;18.60;24.50
44537;DHT22;30245;51.966;6.292;2023-03-01T16:18:03;18.60;24.50
44537;DHT22;30245;51.966;6.292;2023-03-01T16:20:31;18.60;24.70
44537;DHT22;30245;51.966;6.292;2023-03-01T16:22:58;18.40;24.70
44537;DHT22;30245;51.966;6.292;2023-03-01T16:25:25;18.00;24.90
44537;DHT22;30245;51.966;6.292;2023-03-01T16:27:51;17.70;25.20
44537;DHT22;30245;51.966;6.292;2023-03-01T16:30:19;17.30;25.40
44537;DHT22;30245;51.966;6.292;2023-03-01T16:32:47;16.90;25.70
44537;DHT22;30245;51.966;6.292;2023-03-01T16:35:14;16.60;26.00
44537;DHT22;30245;51.966;6.292;2023-03-01T16:37:41;16.40;26.10
44537;DHT22;30245;51.966;6.292;2023-03-01T16:40:19;16.10;26.20
44537;DHT22;30245;51.966;6.292;2023-03-01T16:42:49;15.90;26.40
44537;DHT22;30245;51.966;6.292;2023-03-01T16:45:15;15.70;26.50
44537;DHT22;30245;51.966;6.292;2023-03-01T16:47:41;15.50;26.60
44537;DHT22;30245;51.966;6.292;2023-03-01T16:50:07;15.50;26.80
44537;DHT22;30245;51.966;6.292;2023-03-01T16:52:33;15.30;26.80
44537;DHT22;30245;51.966;6.292;2023-03-01T16:54:59;15.10;27.00
44537;DHT22;30245;51.966;6.292;2023-03-01T16:57:25;15.00;27.10
44537;DHT22;30245;51.966;6.292;2023-03-01T16:59:54;14.90;27.20
44537;DHT22;30245;51.966;6.292;2023-03-01T17:02:19;14.70;27.30
44537;DHT22;30245;51.966;6.292;2023-03-01T17:04:50;14.60;27.40
44537;DHT22;30245;51.966;6.292;2023-03-01T17:07:16;14.40;27.50
44537;DHT22;30245;51.966;6.292;2023-03-01T17:09:42;14.30;27.70
44537;DHT22;30245;51.966;6.292;2023-03-01T17:12:07;14.10;27.80
44537;DHT22;30245;51.966;6.292;2023-03-01T17:14:33;13.90;28.00
44537;DHT22;30245;51.966;6.292;2023-03-01T17:16:58;13.70;28.10
44537;DHT22;30245;51.966;6.292;2023-03-01T17:19:24;13.60;28.20
44537;DHT22;30245;51.966;6.292;2023-03-01T17:21:49;13.50;28.40
44537;DHT22;30245;51.966;6.292;2023-03-01T17:24:15;13.40;28.90
44537;DHT22;30245;51.966;6.292;2023-03-01T17:26:41;13.40;28.60
44537;DHT22;30245;51.966;6.292;2023-03-01T17:29:06;13.20;28.70
44537;DHT22;30245;51.966;6.292;2023-03-01T17:31:33;13.20;28.70
44537;DHT22;30245;51.966;6.292;2023-03-01T17:33:59;13.10;28.80
44537;DHT22;30245;51.966;6.292;2023-03-01T17:36:24;13.00;28.90
44537;DHT22;30245;51.966;6.292;2023-03-01T17:38:51;12.90;29.00
44537;DHT22;30245;51.966;6.292;2023-03-01T17:41:17;12.80;29.20
44537;DHT22;30245;51.966;6.292;2023-03-01T17:43:44;12.60;29.20
44537;DHT22;30245;51.966;6.292;2023-03-01T17:46:10;12.60;29.40
44537;DHT22;30245;51.966;6.292;2023-03-01T17:48:36;12.50;30.00
44537;DHT22;30245;51.966;6.292;2023-03-01T17:51:09;12.40;29.50
44537;DHT22;30245;51.966;6.292;2023-03-01T17:53:36;12.30;29.70
44537;DHT22;30245;51.966;6.292;2023-03-01T17:56:04;12.20;29.80